sensor_id;sensor_type;location;lat;lon;timestamp;P1;durP1;ratioP1;P2;durP2;ratioP2
59486;SDS011;45298;54.918;73.504;2023-08-17T00:01:27;16.50;;;7.75;;
59486;SDS011;45298;54.918;73.504;2023-08-17T00:03:56;9.35;;;4.80;;
59486;SDS011;45298;54.918;73.504;2023-08-17T00:06:25;8.43;;;5.05;;
59486;SDS011;45298;54.918;73.504;2023-08-17T00:08:54;9.32;;;5.45;;
59486;SDS011;45298;54.918;73.504;2023-08-17T00:11:22;11.90;;;4.72;;
59486;SDS011;45298;54.918;73.504;2023-08-17T00:13:51;8.55;;;5.10;;
59486;SDS011;45298;54.918;73.504;2023-08-17T00:16:20;9.65;;;5.15;;
59486;SDS011;45298;54.918;73.504;2023-08-17T00:18:50;14.60;;;4.80;;
59486;SDS011;45298;54.918;73.504;2023-08-17T00:21:18;9.20;;;4.97;;
59486;SDS011;45298;54.918;73.504;2023-08-17T00:23:47;8.30;;;4.45;;
59486;SDS011;45298;54.918;73.504;2023-08-17T00:26:17;6.70;;;4.18;;
59486;SDS011;45298;54.918;73.504;2023-08-17T00:28:45;8.07;;;4.72;;
59486;SDS011;45298;54.918;73.504;2023-08-17T00:31:14;7.05;;;4.40;;
59486;SDS011;45298;54.918;73.504;2023-08-17T00:33:43;6.82;;;4.40;;
59486;SDS011;45298;54.918;73.504;2023-08-17T00:36:12;8.13;;;4.60;;
59486;SDS011;45298;54.918;73.504;2023-08-17T00:38:40;9.65;;;4.80;;
59486;SDS011;45298;54.918;73.504;2023-08-17T00:41:09;8.32;;;4.60;;
59486;SDS011;45298;54.918;73.504;2023-08-17T00:43:38;7.18;;;4.70;;
59486;SDS011;45298;54.918;73.504;2023-08-17T00:46:07;9.13;;;4.40;;
59486;SDS011;45298;54.918;73.504;2023-08-17T00:48:36;12.85;;;4.40;;
59486;SDS011;45298;54.918;73.504;2023-08-17T00:51:05;10.13;;;5.07;;
59486;SDS011;45298;54.918;73.504;2023-08-17T00:53:34;10.23;;;4.47;;
59486;SDS011;45298;54.918;73.504;2023-08-17T00:56:03;9.70;;;4.60;;
59486;SDS011;45298;54.918;73.504;2023-08-17T00:58:32;7.97;;;4.13;;
59486;SDS011;45298;54.918;73.504;2023-08-17T01:01:01;9.27;;;4.32;;
59486;SDS011;45298;54.918;73.504;2023-08-17T01:03:37;6.00;;;3.90;;
59486;SDS011;45298;54.918;73.504;2023-08-17T01:06:13;7.68;;;4.18;;
59486;SDS011;45298;54.918;73.504;2023-08-17T01:08:42;11.43;;;4.60;;
59486;SDS011;45298;54.918;73.504;2023-08-17T01:14:12;12.05;;;5.00;;
59486;SDS011;45298;54.918;73.504;2023-08-17T01:16:48;11.27;;;5.03;;
59486;SDS011;45298;54.918;73.504;2023-08-17T01:19:26;9.05;;;4.97;;
59486;SDS011;45298;54.918;73.504;2023-08-17T01:22:05;9.85;;;4.60;;
59486;SDS011;45298;54.918;73.504;2023-08-17T01:24:37;8.57;;;4.88;;
59486;SDS011;45298;54.918;73.504;2023-08-17T01:27:05;9.43;;;5.25;;
59486;SDS011;45298;54.918;73.504;2023-08-17T01:29:37;13.63;;;5.00;;
59486;SDS011;45298;54.918;73.504;2023-08-17T01:32:09;8.27;;;5.03;;
59486;SDS011;45298;54.918;73.504;2023-08-17T01:34:50;8.75;;;4.68;;
59486;SDS011;45298;54.918;73.504;2023-08-17T01:37:28;10.63;;;4.90;;
59486;SDS011;45298;54.918;73.504;2023-08-17T01:39:59;12.18;;;5.10;;
59486;SDS011;45298;54.918;73.504;2023-08-17T01:42:29;9.45;;;5.30;;
59486;SDS011;45298;54.918;73.504;2023-08-17T01:44:58;11.93;;;5.90;;
59486;SDS011;45298;54.918;73.504;2023-08-17T01:47:27;8.90;;;5.25;;
59486;SDS011;45298;54.918;73.504;2023-08-17T01:49:56;9.60;;;5.20;;
59486;SDS011;45298;54.918;73.504;2023-08-17T01:52:27;12.48;;;6.00;;
59486;SDS011;45298;54.918;73.504;2023-08-17T01:54:56;13.20;;;5.50;;
59486;SDS011;45298;54.918;73.504;2023-08-17T01:57:25;11.18;;;6.00;;
59486;SDS011;45298;54.918;73.504;2023-08-17T01:59:54;13.25;;;5.78;;
59486;SDS011;45298;54.918;73.504;2023-08-17T02:02:23;17.02;;;5.97;;
59486;SDS011;45298;54.918;73.504;2023-08-17T02:04:52;13.00;;;6.03;;
59486;SDS011;45298;54.918;73.504;2023-08-17T02:07:20;13.63;;;5.82;;
59486;SDS011;45298;54.918;73.504;2023-08-17T02:09:50;14.80;;;6.25;;
59486;SDS011;45298;54.918;73.504;2023-08-17T02:12:19;16.63;;;6.35;;
59486;SDS011;45298;54.918;73.504;2023-08-17T02:14:47;12.70;;;6.57;;
59486;SDS011;45298;54.918;73.504;2023-08-17T02:17:16;13.65;;;6.68;;
59486;SDS011;45298;54.918;73.504;2023-08-17T02:19:46;14.95;;;6.95;;
59486;SDS011;45298;54.918;73.504;2023-08-17T02:22:15;13.05;;;7.00;;
59486;SDS011;45298;54.918;73.504;2023-08-17T02:24:44;15.52;;;7.55;;
59486;SDS011;45298;54.918;73.504;2023-08-17T02:27:14;15.80;;;7.35;;
59486;SDS011;45298;54.918;73.504;2023-08-17T02:29:43;14.90;;;7.10;;
59486;SDS011;45298;54.918;73.504;2023-08-17T02:32:11;13.65;;;6.90;;
59486;SDS011;45298;54.918;73.504;2023-08-17T02:34:40;13.85;;;7.00;;
59486;SDS011;45298;54.918;73.504;2023-08-17T02:37:12;15.38;;;7.00;;
59486;SDS011;45298;54.918;73.504;2023-08-17T02:39:40;14.48;;;6.75;;
59486;SDS011;45298;54.918;73.504;2023-08-17T02:42:09;11.07;;;6.18;;
59486;SDS011;45298;54.918;73.504;2023-08-17T02:44:38;10.55;;;6.00;;
59486;SDS011;45298;54.918;73.504;2023-08-17T02:47:09;9.80;;;5.70;;
59486;SDS011;45298;54.918;73.504;2023-08-17T02:49:38;11.05;;;5.90;;
59486;SDS011;45298;54.918;73.504;2023-08-17T02:52:07;9.10;;;5.55;;
59486;SDS011;45298;54.918;73.504;2023-08-17T02:54:35;9.13;;;5.68;;
59486;SDS011;45298;54.918;73.504;2023-08-17T02:57:04;12.18;;;5.72;;
59486;SDS011;45298;54.918;73.504;2023-08-17T02:59:33;15.55;;;5.30;;
59486;SDS011;45298;54.918;73.504;2023-08-17T03:02:01;12.98;;;5.50;;
59486;SDS011;45298;54.918;73.504;2023-08-17T03:04:30;9.65;;;5.75;;
59486;SDS011;45298;54.918;73.504;2023-08-17T03:06:59;10.40;;;5.32;;
59486;SDS011;45298;54.918;73.504;2023-08-17T03:09:28;9.32;;;5.60;;
59486;SDS011;45298;54.918;73.504;2023-08-17T03:11:57;10.98;;;5.60;;
59486;SDS011;45298;54.918;73.504;2023-08-17T03:14:26;12.50;;;5.97;;
59486;SDS011;45298;54.918;73.504;2023-08-17T03:16:54;11.07;;;5.55;;
59486;SDS011;45298;54.918;73.504;2023-08-17T03:19:23;9.85;;;5.15;;
59486;SDS011;45298;54.918;73.504;2023-08-17T03:21:52;9.45;;;5.60;;
59486;SDS011;45298;54.918;73.504;2023-08-17T03:24:21;9.80;;;5.55;;
59486;SDS011;45298;54.918;73.504;2023-08-17T03:26:51;8.27;;;4.78;;
59486;SDS011;45298;54.918;73.504;2023-08-17T03:29:20;11.18;;;5.35;;
59486;SDS011;45298;54.918;73.504;2023-08-17T03:31:48;8.45;;;5.40;;
59486;SDS011;45298;54.918;73.504;2023-08-17T03:34:18;8.55;;;5.18;;
59486;SDS011;45298;54.918;73.504;2023-08-17T03:36:46;10.25;;;5.22;;
59486;SDS011;45298;54.918;73.504;2023-08-17T03:39:15;8.77;;;5.25;;
59486;SDS011;45298;54.918;73.504;2023-08-17T03:41:44;8.80;;;5.00;;
59486;SDS011;45298;54.918;73.504;2023-08-17T03:44:13;9.10;;;5.40;;
59486;SDS011;45298;54.918;73.504;2023-08-17T03:46:43;9.45;;;5.32;;
59486;SDS011;45298;54.918;73.504;2023-08-17T03:49:12;14.35;;;5.72;;
59486;SDS011;45298;54.918;73.504;2023-08-17T03:51:42;9.50;;;5.63;;
59486;SDS011;45298;54.918;73.504;2023-08-17T03:54:12;13.55;;;5.22;;
59486;SDS011;45298;54.918;73.504;2023-08-17T03:56:41;10.93;;;5.53;;
59486;SDS011;45298;54.918;73.504;2023-08-17T03:59:10;10.82;;;4.90;;
59486;SDS011;45298;54.918;73.504;2023-08-17T04:01:38;9.60;;;5.00;;
59486;SDS011;45298;54.918;73.504;2023-08-17T04:04:08;11.10;;;5.03;;
59486;SDS011;45298;54.918;73.504;2023-08-17T04:06:36;17.65;;;9.10;;
59486;SDS011;45298;54.918;73.504;2023-08-17T04:09:07;11.25;;;5.30;;
59486;SDS011;45298;54.918;73.504;2023-08-17T04:11:35;9.77;;;5.65;;
59486;SDS011;45298;54.918;73.504;2023-08-17T04:14:05;10.50;;;5.20;;
59486;SDS011;45298;54.918;73.504;2023-08-17T04:16:34;11.10;;;5.57;;
59486;SDS011;45298;54.918;73.504;2023-08-17T04:19:03;9.60;;;5.80;;
59486;SDS011;45298;54.918;73.504;2023-08-17T04:21:32;12.43;;;6.13;;
59486;SDS011;45298;54.918;73.504;2023-08-17T04:24:01;11.90;;;5.70;;
59486;SDS011;45298;54.918;73.504;2023-08-17T04:26:30;9.77;;;5.50;;
59486;SDS011;45298;54.918;73.504;2023-08-17T04:28:59;17.15;;;6.10;;
59486;SDS011;45298;54.918;73.504;2023-08-17T04:31:28;14.40;;;5.75;;
59486;SDS011;45298;54.918;73.504;2023-08-17T04:34:00;12.85;;;6.25;;
59486;SDS011;45298;54.918;73.504;2023-08-17T04:36:29;14.27;;;6.00;;
59486;SDS011;45298;54.918;73.504;2023-08-17T04:38:58;17.05;;;6.18;;
59486;SDS011;45298;54.918;73.504;2023-08-17T04:41:27;20.27;;;5.93;;
59486;SDS011;45298;54.918;73.504;2023-08-17T04:43:56;17.58;;;7.15;;
59486;SDS011;45298;54.918;73.504;2023-08-17T04:46:25;25.15;;;6.45;;
59486;SDS011;45298;54.918;73.504;2023-08-17T04:48:54;21.70;;;8.52;;
59486;SDS011;45298;54.918;73.504;2023-08-17T04:51:23;34.88;;;7.45;;
59486;SDS011;45298;54.918;73.504;2023-08-17T04:53:52;16.70;;;7.43;;
59486;SDS011;45298;54.918;73.504;2023-08-17T04:56:21;24.35;;;6.53;;
59486;SDS011;45298;54.918;73.504;2023-08-17T04:58:50;18.88;;;5.85;;
59486;SDS011;45298;54.918;73.504;2023-08-17T05:01:19;30.27;;;16.80;;
59486;SDS011;45298;54.918;73.504;2023-08-17T05:03:48;15.82;;;7.55;;
59486;SDS011;45298;54.918;73.504;2023-08-17T05:06:17;9.25;;;4.65;;
59486;SDS011;45298;54.918;73.504;2023-08-17T05:08:46;8.52;;;4.53;;
59486;SDS011;45298;54.918;73.504;2023-08-17T05:11:15;8.88;;;4.35;;
59486;SDS011;45298;54.918;73.504;2023-08-17T05:13:45;9.20;;;4.70;;
59486;SDS011;45298;54.918;73.504;2023-08-17T05:16:14;7.93;;;4.70;;
59486;SDS011;45298;54.918;73.504;2023-08-17T05:18:44;7.18;;;4.28;;
59486;SDS011;45298;54.918;73.504;2023-08-17T05:21:15;7.60;;;4.40;;
59486;SDS011;45298;54.918;73.504;2023-08-17T05:23:43;10.98;;;4.22;;
59486;SDS011;45298;54.918;73.504;2023-08-17T05:26:12;10.95;;;4.95;;
59486;SDS011;45298;54.918;73.504;2023-08-17T05:28:43;52.88;;;22.10;;
59486;SDS011;45298;54.918;73.504;2023-08-17T05:31:13;9.68;;;5.55;;
59486;SDS011;45298;54.918;73.504;2023-08-17T05:33:45;8.63;;;5.32;;
59486;SDS011;45298;54.918;73.504;2023-08-17T05:36:15;9.52;;;5.55;;
59486;SDS011;45298;54.918;73.504;2023-08-17T05:38:46;13.55;;;5.63;;
59486;SDS011;45298;54.918;73.504;2023-08-17T05:41:15;13.25;;;5.13;;
59486;SDS011;45298;54.918;73.504;2023-08-17T05:43:45;9.82;;;4.88;;
59486;SDS011;45298;54.918;73.504;2023-08-17T05:46:14;13.15;;;5.55;;
59486;SDS011;45298;54.918;73.504;2023-08-17T05:48:43;12.60;;;5.43;;
59486;SDS011;45298;54.918;73.504;2023-08-17T05:51:11;11.80;;;5.72;;
59486;SDS011;45298;54.918;73.504;2023-08-17T05:53:40;9.98;;;5.00;;
59486;SDS011;45298;54.918;73.504;2023-08-17T05:56:12;9.68;;;4.85;;
59486;SDS011;45298;54.918;73.504;2023-08-17T05:58:41;11.93;;;5.38;;
59486;SDS011;45298;54.918;73.504;2023-08-17T06:01:11;18.13;;;6.18;;
59486;SDS011;45298;54.918;73.504;2023-08-17T06:03:40;24.52;;;8.10;;
59486;SDS011;45298;54.918;73.504;2023-08-17T06:06:09;29.95;;;7.75;;
59486;SDS011;45298;54.918;73.504;2023-08-17T06:08:38;20.02;;;6.10;;
59486;SDS011;45298;54.918;73.504;2023-08-17T06:11:07;22.48;;;9.73;;
59486;SDS011;45298;54.918;73.504;2023-08-17T06:13:36;17.40;;;5.88;;
59486;SDS011;45298;54.918;73.504;2023-08-17T06:16:05;20.25;;;8.10;;
59486;SDS011;45298;54.918;73.504;2023-08-17T06:18:34;10.98;;;6.50;;
59486;SDS011;45298;54.918;73.504;2023-08-17T06:21:02;9.75;;;5.07;;
59486;SDS011;45298;54.918;73.504;2023-08-17T06:23:34;9.13;;;5.25;;
59486;SDS011;45298;54.918;73.504;2023-08-17T06:26:03;15.40;;;5.70;;
59486;SDS011;45298;54.918;73.504;2023-08-17T06:28:32;12.15;;;5.85;;
59486;SDS011;45298;54.918;73.504;2023-08-17T06:31:01;12.60;;;5.40;;
59486;SDS011;45298;54.918;73.504;2023-08-17T06:33:30;10.00;;;5.20;;
59486;SDS011;45298;54.918;73.504;2023-08-17T06:35:59;7.85;;;5.03;;
59486;SDS011;45298;54.918;73.504;2023-08-17T06:38:27;7.47;;;4.70;;
59486;SDS011;45298;54.918;73.504;2023-08-17T06:40:56;8.27;;;4.82;;
59486;SDS011;45298;54.918;73.504;2023-08-17T06:43:25;6.95;;;4.65;;
59486;SDS011;45298;54.918;73.504;2023-08-17T06:45:54;7.47;;;5.00;;
59486;SDS011;45298;54.918;73.504;2023-08-17T06:48:24;10.35;;;6.07;;
59486;SDS011;45298;54.918;73.504;2023-08-17T06:50:53;9.20;;;5.40;;
59486;SDS011;45298;54.918;73.504;2023-08-17T06:53:22;8.15;;;4.53;;
59486;SDS011;45298;54.918;73.504;2023-08-17T06:55:51;9.10;;;5.53;;
59486;SDS011;45298;54.918;73.504;2023-08-17T06:58:20;9.93;;;5.15;;
59486;SDS011;45298;54.918;73.504;2023-08-17T07:00:49;11.82;;;5.63;;
59486;SDS011;45298;54.918;73.504;2023-08-17T07:03:17;8.50;;;5.15;;
59486;SDS011;45298;54.918;73.504;2023-08-17T07:05:46;7.13;;;5.18;;
59486;SDS011;45298;54.918;73.504;2023-08-17T07:08:16;11.68;;;5.50;;
59486;SDS011;45298;54.918;73.504;2023-08-17T07:10:45;8.20;;;5.35;;
59486;SDS011;45298;54.918;73.504;2023-08-17T07:13:13;8.48;;;5.50;;
59486;SDS011;45298;54.918;73.504;2023-08-17T07:15:42;10.43;;;5.75;;
59486;SDS011;45298;54.918;73.504;2023-08-17T07:18:11;8.70;;;5.80;;
59486;SDS011;45298;54.918;73.504;2023-08-17T07:20:39;9.77;;;5.40;;
59486;SDS011;45298;54.918;73.504;2023-08-17T07:23:08;15.75;;;6.63;;
59486;SDS011;45298;54.918;73.504;2023-08-17T07:25:37;21.00;;;7.90;;
59486;SDS011;45298;54.918;73.504;2023-08-17T07:28:06;21.77;;;7.80;;
59486;SDS011;45298;54.918;73.504;2023-08-17T07:30:35;16.77;;;7.22;;
59486;SDS011;45298;54.918;73.504;2023-08-17T07:33:04;26.33;;;11.73;;
59486;SDS011;45298;54.918;73.504;2023-08-17T07:35:34;22.17;;;7.57;;
59486;SDS011;45298;54.918;73.504;2023-08-17T07:38:02;22.73;;;8.55;;
59486;SDS011;45298;54.918;73.504;2023-08-17T07:40:36;11.07;;;6.45;;
59486;SDS011;45298;54.918;73.504;2023-08-17T07:43:05;16.42;;;7.22;;
59486;SDS011;45298;54.918;73.504;2023-08-17T07:45:34;10.50;;;6.18;;
59486;SDS011;45298;54.918;73.504;2023-08-17T07:48:03;22.42;;;8.52;;
59486;SDS011;45298;54.918;73.504;2023-08-17T07:50:32;21.95;;;8.00;;
59486;SDS011;45298;54.918;73.504;2023-08-17T07:53:01;11.77;;;5.93;;
59486;SDS011;45298;54.918;73.504;2023-08-17T07:55:30;11.43;;;5.80;;
59486;SDS011;45298;54.918;73.504;2023-08-17T07:57:59;8.48;;;5.50;;
59486;SDS011;45298;54.918;73.504;2023-08-17T08:00:28;9.43;;;5.60;;
59486;SDS011;45298;54.918;73.504;2023-08-17T08:02:57;12.32;;;6.10;;
59486;SDS011;45298;54.918;73.504;2023-08-17T08:05:26;19.42;;;7.20;;
59486;SDS011;45298;54.918;73.504;2023-08-17T08:07:57;26.05;;;7.45;;
59486;SDS011;45298;54.918;73.504;2023-08-17T08:10:27;17.30;;;6.63;;
59486;SDS011;45298;54.918;73.504;2023-08-17T08:12:56;25.42;;;7.20;;
59486;SDS011;45298;54.918;73.504;2023-08-17T08:15:25;11.75;;;6.53;;
59486;SDS011;45298;54.918;73.504;2023-08-17T08:17:54;14.38;;;6.55;;
59486;SDS011;45298;54.918;73.504;2023-08-17T08:20:23;10.43;;;5.45;;
59486;SDS011;45298;54.918;73.504;2023-08-17T08:22:52;9.30;;;5.53;;
59486;SDS011;45298;54.918;73.504;2023-08-17T08:25:21;9.73;;;5.18;;
59486;SDS011;45298;54.918;73.504;2023-08-17T08:27:49;13.00;;;6.35;;
59486;SDS011;45298;54.918;73.504;2023-08-17T08:30:18;37.33;;;8.82;;
59486;SDS011;45298;54.918;73.504;2023-08-17T08:32:47;31.48;;;12.75;;
59486;SDS011;45298;54.918;73.504;2023-08-17T08:35:16;13.23;;;6.63;;
59486;SDS011;45298;54.918;73.504;2023-08-17T08:37:46;9.40;;;5.68;;
59486;SDS011;45298;54.918;73.504;2023-08-17T08:40:14;9.13;;;6.15;;
59486;SDS011;45298;54.918;73.504;2023-08-17T08:42:46;12.27;;;6.90;;
59486;SDS011;45298;54.918;73.504;2023-08-17T08:45:17;13.48;;;5.72;;
59486;SDS011;45298;54.918;73.504;2023-08-17T08:47:47;10.80;;;5.43;;
59486;SDS011;45298;54.918;73.504;2023-08-17T08:50:18;18.73;;;6.40;;
59486;SDS011;45298;54.918;73.504;2023-08-17T08:52:59;23.33;;;7.85;;
59486;SDS011;45298;54.918;73.504;2023-08-17T08:55:33;11.15;;;5.72;;
59486;SDS011;45298;54.918;73.504;2023-08-17T08:58:11;15.15;;;5.68;;
59486;SDS011;45298;54.918;73.504;2023-08-17T09:00:45;12.30;;;6.25;;
59486;SDS011;45298;54.918;73.504;2023-08-17T09:03:16;12.65;;;5.60;;
59486;SDS011;45298;54.918;73.504;2023-08-17T09:05:49;12.75;;;6.05;;
59486;SDS011;45298;54.918;73.504;2023-08-17T09:08:21;7.18;;;4.60;;
59486;SDS011;45298;54.918;73.504;2023-08-17T09:10:51;11.30;;;5.22;;
59486;SDS011;45298;54.918;73.504;2023-08-17T09:13:20;10.32;;;4.60;;
59486;SDS011;45298;54.918;73.504;2023-08-17T09:15:49;18.52;;;5.18;;
59486;SDS011;45298;54.918;73.504;2023-08-17T09:18:19;12.05;;;5.35;;
59486;SDS011;45298;54.918;73.504;2023-08-17T09:20:48;10.32;;;4.97;;
59486;SDS011;45298;54.918;73.504;2023-08-17T09:23:21;27.33;;;5.75;;
59486;SDS011;45298;54.918;73.504;2023-08-17T09:25:50;11.02;;;4.60;;
59486;SDS011;45298;54.918;73.504;2023-08-17T09:28:32;12.77;;;4.97;;
59486;SDS011;45298;54.918;73.504;2023-08-17T09:31:01;10.32;;;6.32;;
59486;SDS011;45298;54.918;73.504;2023-08-17T09:33:34;10.43;;;4.35;;
59486;SDS011;45298;54.918;73.504;2023-08-17T09:36:03;9.85;;;4.10;;
59486;SDS011;45298;54.918;73.504;2023-08-17T09:38:32;10.68;;;4.60;;
59486;SDS011;45298;54.918;73.504;2023-08-17T09:41:01;7.28;;;3.97;;
59486;SDS011;45298;54.918;73.504;2023-08-17T09:43:30;8.95;;;4.00;;
59486;SDS011;45298;54.918;73.504;2023-08-17T09:46:01;10.68;;;4.40;;
59486;SDS011;45298;54.918;73.504;2023-08-17T09:48:31;7.57;;;4.00;;
59486;SDS011;45298;54.918;73.504;2023-08-17T09:51:00;10.30;;;4.30;;
59486;SDS011;45298;54.918;73.504;2023-08-17T09:53:34;20.92;;;4.95;;
59486;SDS011;45298;54.918;73.504;2023-08-17T09:56:05;18.38;;;4.63;;
59486;SDS011;45298;54.918;73.504;2023-08-17T09:58:41;15.98;;;3.90;;
59486;SDS011;45298;54.918;73.504;2023-08-17T10:01:10;11.98;;;4.68;;
59486;SDS011;45298;54.918;73.504;2023-08-17T10:03:42;12.00;;;4.28;;
59486;SDS011;45298;54.918;73.504;2023-08-17T10:06:19;15.18;;;3.90;;
59486;SDS011;45298;54.918;73.504;2023-08-17T10:08:56;13.95;;;4.03;;
59486;SDS011;45298;54.918;73.504;2023-08-17T10:11:27;5.72;;;3.30;;
59486;SDS011;45298;54.918;73.504;2023-08-17T10:14:02;8.65;;;3.65;;
59486;SDS011;45298;54.918;73.504;2023-08-17T10:16:45;24.27;;;5.32;;
59486;SDS011;45298;54.918;73.504;2023-08-17T10:19:30;11.60;;;3.83;;
59486;SDS011;45298;54.918;73.504;2023-08-17T10:22:12;13.10;;;3.72;;
59486;SDS011;45298;54.918;73.504;2023-08-17T10:24:48;17.77;;;5.72;;
59486;SDS011;45298;54.918;73.504;2023-08-17T10:27:19;11.55;;;3.75;;
59486;SDS011;45298;54.918;73.504;2023-08-17T10:29:49;20.50;;;5.85;;
59486;SDS011;45298;54.918;73.504;2023-08-17T10:32:22;15.50;;;4.05;;
59486;SDS011;45298;54.918;73.504;2023-08-17T10:34:53;19.97;;;5.27;;
59486;SDS011;45298;54.918;73.504;2023-08-17T10:37:22;11.05;;;3.40;;
59486;SDS011;45298;54.918;73.504;2023-08-17T10:39:52;15.45;;;4.40;;
59486;SDS011;45298;54.918;73.504;2023-08-17T10:42:34;16.63;;;3.80;;
59486;SDS011;45298;54.918;73.504;2023-08-17T10:50:37;16.58;;;3.70;;
59486;SDS011;45298;54.918;73.504;2023-08-17T10:53:13;9.43;;;3.20;;
59486;SDS011;45298;54.918;73.504;2023-08-17T10:55:46;5.05;;;2.45;;
59486;SDS011;45298;54.918;73.504;2023-08-17T10:58:20;7.15;;;2.70;;
59486;SDS011;45298;54.918;73.504;2023-08-17T11:00:49;9.60;;;2.67;;
59486;SDS011;45298;54.918;73.504;2023-08-17T11:03:28;24.90;;;4.63;;
59486;SDS011;45298;54.918;73.504;2023-08-17T11:06:13;17.48;;;3.00;;
59486;SDS011;45298;54.918;73.504;2023-08-17T11:08:53;4.97;;;2.00;;
59486;SDS011;45298;54.918;73.504;2023-08-17T11:11:24;5.72;;;2.00;;
59486;SDS011;45298;54.918;73.504;2023-08-17T11:13:59;8.20;;;2.40;;
59486;SDS011;45298;54.918;73.504;2023-08-17T11:16:27;12.35;;;2.20;;
59486;SDS011;45298;54.918;73.504;2023-08-17T11:18:56;5.05;;;2.20;;
59486;SDS011;45298;54.918;73.504;2023-08-17T11:21:27;4.40;;;2.10;;
59486;SDS011;45298;54.918;73.504;2023-08-17T11:23:59;5.50;;;2.75;;
59486;SDS011;45298;54.918;73.504;2023-08-17T11:26:28;10.55;;;2.28;;
59486;SDS011;45298;54.918;73.504;2023-08-17T11:29:02;3.85;;;1.85;;
59486;SDS011;45298;54.918;73.504;2023-08-17T11:31:31;7.63;;;1.85;;
59486;SDS011;45298;54.918;73.504;2023-08-17T11:34:01;6.38;;;2.15;;
59486;SDS011;45298;54.918;73.504;2023-08-17T11:36:30;12.65;;;2.42;;
59486;SDS011;45298;54.918;73.504;2023-08-17T11:39:02;20.20;;;3.85;;
59486;SDS011;45298;54.918;73.504;2023-08-17T11:41:37;8.50;;;2.63;;
59486;SDS011;45298;54.918;73.504;2023-08-17T11:44:05;17.63;;;4.78;;
59486;SDS011;45298;54.918;73.504;2023-08-17T11:46:34;15.60;;;5.30;;
59486;SDS011;45298;54.918;73.504;2023-08-17T11:49:04;4.28;;;1.80;;
59486;SDS011;45298;54.918;73.504;2023-08-17T11:51:34;5.18;;;1.98;;
59486;SDS011;45298;54.918;73.504;2023-08-17T11:54:09;6.53;;;1.80;;
59486;SDS011;45298;54.918;73.504;2023-08-17T11:56:37;4.13;;;1.80;;
59486;SDS011;45298;54.918;73.504;2023-08-17T11:59:10;5.57;;;2.00;;
59486;SDS011;45298;54.918;73.504;2023-08-17T12:01:42;5.10;;;1.90;;
59486;SDS011;45298;54.918;73.504;2023-08-17T12:04:11;6.30;;;3.00;;
59486;SDS011;45298;54.918;73.504;2023-08-17T12:06:43;10.65;;;2.38;;
59486;SDS011;45298;54.918;73.504;2023-08-17T12:09:17;4.53;;;1.90;;
59486;SDS011;45298;54.918;73.504;2023-08-17T12:11:47;6.13;;;1.65;;
59486;SDS011;45298;54.918;73.504;2023-08-17T12:14:15;2.83;;;1.30;;
59486;SDS011;45298;54.918;73.504;2023-08-17T12:16:45;3.63;;;1.77;;
59486;SDS011;45298;54.918;73.504;2023-08-17T12:19:19;2.85;;;1.60;;
59486;SDS011;45298;54.918;73.504;2023-08-17T12:21:52;4.90;;;2.10;;
59486;SDS011;45298;54.918;73.504;2023-08-17T12:24:23;8.82;;;3.03;;
59486;SDS011;45298;54.918;73.504;2023-08-17T12:26:52;6.05;;;2.55;;
59486;SDS011;45298;54.918;73.504;2023-08-17T12:29:25;4.85;;;2.10;;
59486;SDS011;45298;54.918;73.504;2023-08-17T12:31:57;4.25;;;2.03;;
59486;SDS011;45298;54.918;73.504;2023-08-17T12:34:26;7.85;;;2.40;;
59486;SDS011;45298;54.918;73.504;2023-08-17T12:36:55;7.93;;;2.20;;
59486;SDS011;45298;54.918;73.504;2023-08-17T12:39:24;7.30;;;2.20;;
59486;SDS011;45298;54.918;73.504;2023-08-17T12:41:53;17.45;;;9.73;;
59486;SDS011;45298;54.918;73.504;2023-08-17T12:44:21;5.40;;;2.88;;
59486;SDS011;45298;54.918;73.504;2023-08-17T12:46:50;7.43;;;4.45;;
59486;SDS011;45298;54.918;73.504;2023-08-17T12:49:19;7.95;;;3.03;;
59486;SDS011;45298;54.918;73.504;2023-08-17T12:51:47;12.73;;;6.60;;
59486;SDS011;45298;54.918;73.504;2023-08-17T12:54:16;6.72;;;3.60;;
59486;SDS011;45298;54.918;73.504;2023-08-17T12:56:45;2.80;;;1.80;;
59486;SDS011;45298;54.918;73.504;2023-08-17T12:59:14;5.47;;;2.55;;
59486;SDS011;45298;54.918;73.504;2023-08-17T13:01:43;4.03;;;2.10;;
59486;SDS011;45298;54.918;73.504;2023-08-17T13:04:11;2.55;;;1.70;;
59486;SDS011;45298;54.918;73.504;2023-08-17T13:06:41;6.70;;;3.65;;
59486;SDS011;45298;54.918;73.504;2023-08-17T13:09:16;7.53;;;2.40;;
59486;SDS011;45298;54.918;73.504;2023-08-17T13:11:46;4.65;;;2.30;;
59486;SDS011;45298;54.918;73.504;2023-08-17T13:14:22;6.90;;;2.60;;
59486;SDS011;45298;54.918;73.504;2023-08-17T13:16:51;5.63;;;1.90;;
59486;SDS011;45298;54.918;73.504;2023-08-17T13:19:20;7.18;;;2.55;;
59486;SDS011;45298;54.918;73.504;2023-08-17T13:21:49;4.75;;;2.10;;
59486;SDS011;45298;54.918;73.504;2023-08-17T13:24:18;7.07;;;3.10;;
59486;SDS011;45298;54.918;73.504;2023-08-17T13:26:47;6.95;;;2.55;;
59486;SDS011;45298;54.918;73.504;2023-08-17T13:29:20;7.70;;;3.00;;
59486;SDS011;45298;54.918;73.504;2023-08-17T13:31:49;8.13;;;3.38;;
59486;SDS011;45298;54.918;73.504;2023-08-17T13:34:18;4.95;;;2.60;;
59486;SDS011;45298;54.918;73.504;2023-08-17T13:36:47;11.15;;;4.53;;
59486;SDS011;45298;54.918;73.504;2023-08-17T13:39:16;14.88;;;5.80;;
59486;SDS011;45298;54.918;73.504;2023-08-17T13:41:45;6.45;;;3.55;;
59486;SDS011;45298;54.918;73.504;2023-08-17T13:44:14;6.07;;;3.45;;
59486;SDS011;45298;54.918;73.504;2023-08-17T13:46:43;10.50;;;4.35;;
59486;SDS011;45298;54.918;73.504;2023-08-17T13:49:11;17.40;;;8.73;;
59486;SDS011;45298;54.918;73.504;2023-08-17T13:51:43;16.38;;;7.82;;
59486;SDS011;45298;54.918;73.504;2023-08-17T13:54:12;9.10;;;4.50;;
59486;SDS011;45298;54.918;73.504;2023-08-17T13:56:41;13.73;;;5.63;;
59486;SDS011;45298;54.918;73.504;2023-08-17T13:59:10;14.93;;;6.75;;
59486;SDS011;45298;54.918;73.504;2023-08-17T14:01:39;24.35;;;12.00;;
59486;SDS011;45298;54.918;73.504;2023-08-17T14:04:08;46.97;;;21.10;;
59486;SDS011;45298;54.918;73.504;2023-08-17T14:06:40;60.30;;;31.30;;
59486;SDS011;45298;54.918;73.504;2023-08-17T14:09:09;67.55;;;35.08;;
59486;SDS011;45298;54.918;73.504;2023-08-17T14:11:38;41.78;;;21.73;;
59486;SDS011;45298;54.918;73.504;2023-08-17T14:14:06;108.30;;;55.75;;
59486;SDS011;45298;54.918;73.504;2023-08-17T14:16:37;62.80;;;35.65;;
59486;SDS011;45298;54.918;73.504;2023-08-17T14:19:06;92.70;;;47.28;;
59486;SDS011;45298;54.918;73.504;2023-08-17T14:21:35;82.25;;;43.38;;
59486;SDS011;45298;54.918;73.504;2023-08-17T14:24:08;189.27;;;92.32;;
59486;SDS011;45298;54.918;73.504;2023-08-17T14:26:37;226.02;;;110.85;;
59486;SDS011;45298;54.918;73.504;2023-08-17T14:29:06;190.35;;;94.97;;
59486;SDS011;45298;54.918;73.504;2023-08-17T14:31:35;118.82;;;55.25;;
59486;SDS011;45298;54.918;73.504;2023-08-17T14:34:04;355.38;;;180.38;;
59486;SDS011;45298;54.918;73.504;2023-08-17T14:36:33;215.15;;;92.30;;
59486;SDS011;45298;54.918;73.504;2023-08-17T14:39:02;161.98;;;78.70;;
59486;SDS011;45298;54.918;73.504;2023-08-17T14:41:31;155.23;;;82.40;;
59486;SDS011;45298;54.918;73.504;2023-08-17T14:44:00;93.72;;;46.22;;
59486;SDS011;45298;54.918;73.504;2023-08-17T14:46:30;39.25;;;20.92;;
59486;SDS011;45298;54.918;73.504;2023-08-17T14:48:58;23.10;;;12.48;;
59486;SDS011;45298;54.918;73.504;2023-08-17T14:51:28;19.45;;;10.70;;